X  Fermer Données météorologiques d'aviation de Metar     EDJA Memmingen Allgau Airport
Température
8°C Température
0°C Point de rosée
57% Humidité



Vent
10 M/S
22 MPH
35 KM/H
19 KTS



240°
OSO
Conditions actuelles

Nuages épars Nuages épars
Pression 1006.77 (hPa) - 29.73 (inHg)
Visibilité 6 (mile) - 9.7 (km)
Aéroport
Code de l'aéroport EDJA

Emplacement: Memmingen Allgau Airport
Distance: 50 (km)

Metar:
EDJA 161550Z 24019KT 9999 SCT047 OVC061 08/M00 Q1007

Temps: 16-04-2024 17:50 CEST